Mount Walker, Washington
Current Conditions -  °F | °C
As of 10:15 AM on Friday 28 Nov 2014 (Local Time) from KPWT Reporting Station
Overcast Overcast  
Wind Chill: 38°   Ceiling: 500
Heat Index: 45°   Visibility: 9mi
Dew Point: 45°   Wind: 14mph
Humidity: 100%   Direction: 40°NE
Pressure: 29.52"   Gusts: NA
Location:  47.8412°N, 122.841°W
Report Text: KPWT 281815Z AUTO 04012KT 9SM BKN005 OVC010 07/07 A2952 RMK AO1 P0008
Loading
Personal Weather Stations






























Interactive Weather Map New forecast layout! Learn more

10-Day Weather Forecast

Advertisements
Track Severe Weather on mobile